createdAt,value
2023-02-04T00:00:23.079Z,14.35
2023-02-04T00:02:50.986Z,12.25
2023-02-04T00:05:18.925Z,16.17
2023-02-04T00:07:46.055Z,11.57
2023-02-04T00:10:13.207Z,14.80
2023-02-04T00:12:40.492Z,13.77
2023-02-04T00:15:08.127Z,13.70
2023-02-04T00:17:35.716Z,13.52
2023-02-04T00:20:02.755Z,16.52
2023-02-04T00:22:30.630Z,12.88
2023-02-04T00:24:57.469Z,14.63
2023-02-04T00:27:24.587Z,14.02
2023-02-04T00:29:51.588Z,13.90
2023-02-04T00:32:18.818Z,15.38
2023-02-04T00:34:45.779Z,12.95
2023-02-04T00:37:12.741Z,12.73
2023-02-04T00:39:39.921Z,12.65
2023-02-04T00:42:07.485Z,12.63
2023-02-04T00:44:36.843Z,12.85
2023-02-04T00:47:04.640Z,14.35
2023-02-04T00:49:33.393Z,12.55
2023-02-04T00:52:00.519Z,14.38
2023-02-04T00:54:28.010Z,12.45
2023-02-04T00:56:54.982Z,12.15
2023-02-04T00:59:22.587Z,11.88
2023-02-04T01:01:49.789Z,11.32
2023-02-04T01:04:16.724Z,13.77
2023-02-04T01:06:44.220Z,11.40
2023-02-04T01:09:12.015Z,10.82
2023-02-04T01:11:39.385Z,12.18
2023-02-04T01:14:06.516Z,12.23
2023-02-04T01:16:33.720Z,11.65
2023-02-04T01:19:00.847Z,12.63
2023-02-04T01:21:27.776Z,11.52
2023-02-04T01:23:54.832Z,13.00
2023-02-04T01:26:22.543Z,12.10
2023-02-04T01:28:49.990Z,13.05
2023-02-04T01:31:18.360Z,13.80
2023-02-04T01:33:45.576Z,14.55
2023-02-04T01:36:12.525Z,15.50
2023-02-04T01:38:39.489Z,14.98
2023-02-04T01:41:06.978Z,17.08
2023-02-04T01:43:34.307Z,12.07
2023-02-04T01:46:02.787Z,12.00
2023-02-04T01:48:30.577Z,17.33
2023-02-04T01:51:04.511Z,15.02
2023-02-04T01:53:32.985Z,13.38
2023-02-04T01:56:00.256Z,14.27
2023-02-04T01:58:31.716Z,15.60
2023-02-04T02:00:58.821Z,18.27
2023-02-04T02:03:25.998Z,14.07
2023-02-04T02:05:55.552Z,15.93
2023-02-04T02:08:26.157Z,18.30
2023-02-04T02:10:56.251Z,18.92
2023-02-04T02:13:23.345Z,17.48
2023-02-04T02:15:52.169Z,18.33
2023-02-04T02:18:19.276Z,16.38
2023-02-04T02:20:46.742Z,17.75
2023-02-04T02:23:24.873Z,19.98
2023-02-04T02:25:52.633Z,17.90
2023-02-04T02:28:22.518Z,22.00
2023-02-04T02:30:51.168Z,18.90
2023-02-04T02:33:20.457Z,20.02
2023-02-04T02:38:19.581Z,19.35
2023-02-04T02:40:51.215Z,13.60
2023-02-04T02:43:25.166Z,18.13
2023-02-04T02:45:53.189Z,16.02
2023-02-04T02:48:20.151Z,15.70
2023-02-04T02:50:48.333Z,16.58
2023-02-04T02:53:18.061Z,17.13
2023-02-04T02:55:46.595Z,16.40
2023-02-04T02:58:28.972Z,15.52
2023-02-04T03:00:57.489Z,18.95
2023-02-04T03:03:30.334Z,15.73
2023-02-04T03:06:03.443Z,18.13
2023-02-04T03:08:31.505Z,17.02
2023-02-04T03:10:58.405Z,14.13
2023-02-04T03:13:26.266Z,18.65
2023-02-04T03:15:54.113Z,17.45
2023-02-04T03:18:21.982Z,14.88
2023-02-04T03:20:51.366Z,14.45
2023-02-04T03:25:46.503Z,16.17
2023-02-04T03:28:13.482Z,16.58
2023-02-04T03:30:40.720Z,18.67
2023-02-04T03:33:07.725Z,16.23
2023-02-04T03:35:34.621Z,17.10
2023-02-04T03:38:01.665Z,15.55
2023-02-04T03:40:30.275Z,19.05
2023-02-04T03:42:57.595Z,17.50
2023-02-04T03:45:25.091Z,15.88
2023-02-04T03:47:54.042Z,16.75
2023-02-04T03:50:21.025Z,20.23
2023-02-04T03:52:50.109Z,16.17
2023-02-04T03:55:17.265Z,15.50
2023-02-04T03:57:44.205Z,21.75
2023-02-04T04:00:11.953Z,18.38
2023-02-04T04:02:40.031Z,20.15
2023-02-04T04:05:08.509Z,19.67
2023-02-04T04:07:35.496Z,18.55
2023-02-04T04:10:03.237Z,19.83
2023-02-04T04:12:30.650Z,15.73
2023-02-04T04:14:57.729Z,16.05
2023-02-04T04:17:24.665Z,17.75
2023-02-04T04:19:51.796Z,17.08
2023-02-04T04:22:19.032Z,17.75
2023-02-04T04:24:45.910Z,19.30
2023-02-04T04:27:12.857Z,16.02
2023-02-04T04:29:39.988Z,16.13
2023-02-04T04:32:07.349Z,18.23
2023-02-04T04:34:34.318Z,20.70
2023-02-04T04:37:01.350Z,17.92
2023-02-04T04:39:28.355Z,18.08
2023-02-04T04:41:55.397Z,19.33
2023-02-04T04:44:22.565Z,20.63
2023-02-04T04:46:49.982Z,17.20
2023-02-04T04:49:17.104Z,20.70
2023-02-04T04:51:44.268Z,22.60
2023-02-04T04:54:11.208Z,17.13
2023-02-04T04:56:38.422Z,18.92
2023-02-04T04:59:05.292Z,18.45
2023-02-04T05:01:32.780Z,17.95
2023-02-04T05:03:59.846Z,15.25
2023-02-04T05:06:26.992Z,5.53
2023-02-04T05:08:54.636Z,6.68
2023-02-04T05:11:21.986Z,3.22
2023-02-04T05:13:49.197Z,4.47
2023-02-04T05:16:17.392Z,2.05
2023-02-04T05:18:44.820Z,1.95
2023-02-04T05:21:11.921Z,5.07
2023-02-04T05:23:38.945Z,3.53
2023-02-04T05:26:06.069Z,2.50
2023-02-04T05:28:33.264Z,5.57
2023-02-04T05:31:00.435Z,15.68
2023-02-04T05:33:27.539Z,7.55
2023-02-04T05:35:54.606Z,3.90
2023-02-04T05:38:21.824Z,5.95
2023-02-04T05:40:48.698Z,1.08
2023-02-04T05:43:15.914Z,2.75
2023-02-04T05:45:42.967Z,7.13
2023-02-04T05:48:10.241Z,3.28
2023-02-04T05:50:37.147Z,5.80
2023-02-04T05:53:10.233Z,4.95
2023-02-04T05:55:37.297Z,3.17
2023-02-04T05:58:04.573Z,5.05
2023-02-04T06:00:32.456Z,3.88
2023-02-04T06:02:59.728Z,2.83
2023-02-04T06:05:26.883Z,2.88
2023-02-04T06:07:53.929Z,4.25
2023-02-04T06:10:39.483Z,7.90
2023-02-04T06:13:06.573Z,7.03
2023-02-04T06:15:33.478Z,3.35
2023-02-04T06:18:00.659Z,4.03
2023-02-04T06:20:27.546Z,3.03
2023-02-04T06:22:54.701Z,4.93
2023-02-04T06:25:22.658Z,4.53
2023-02-04T06:27:50.024Z,6.95
2023-02-04T06:30:18.619Z,4.68
2023-02-04T06:32:45.970Z,7.82
2023-02-04T06:35:13.339Z,7.53
2023-02-04T06:37:40.372Z,4.43
2023-02-04T06:40:08.721Z,3.83
2023-02-04T06:42:35.663Z,2.42
2023-02-04T06:45:02.994Z,4.97
2023-02-04T06:47:30.614Z,6.88
2023-02-04T06:49:57.894Z,5.57
2023-02-04T06:52:24.903Z,5.63
2023-02-04T06:54:52.044Z,7.45
2023-02-04T06:57:21.425Z,9.32
2023-02-04T07:02:17.818Z,6.72
2023-02-04T07:04:46.915Z,6.45
2023-02-04T07:07:14.703Z,7.95
2023-02-04T07:09:42.643Z,5.78
2023-02-04T07:12:09.566Z,7.88
2023-02-04T07:14:36.628Z,3.80
2023-02-04T07:17:03.559Z,11.52
2023-02-04T07:19:30.707Z,3.65
2023-02-04T07:21:57.656Z,7.00
2023-02-04T07:24:25.221Z,12.30
2023-02-04T07:26:52.782Z,6.35
2023-02-04T07:29:25.178Z,5.25
2023-02-04T07:31:53.259Z,5.63
2023-02-04T07:34:21.482Z,6.65
2023-02-04T07:36:48.429Z,4.35
2023-02-04T07:39:15.344Z,5.03
2023-02-04T07:41:42.612Z,2.92
2023-02-04T07:44:12.464Z,6.70
2023-02-04T07:46:39.546Z,5.10
2023-02-04T07:49:06.540Z,6.00
2023-02-04T07:51:33.841Z,4.15
2023-02-04T07:54:01.053Z,8.52
2023-02-04T07:56:27.969Z,7.18
2023-02-04T07:58:55.002Z,4.28
2023-02-04T08:01:22.327Z,6.30
2023-02-04T08:03:49.469Z,8.48
2023-02-04T08:06:16.386Z,3.83
2023-02-04T08:08:43.553Z,3.03
2023-02-04T08:11:10.646Z,5.25
2023-02-04T08:13:37.581Z,7.88
2023-02-04T08:16:04.650Z,5.45
2023-02-04T08:18:31.555Z,5.38
2023-02-04T08:20:59.576Z,6.13
2023-02-04T08:23:26.758Z,7.00
2023-02-04T08:25:53.617Z,5.20
2023-02-04T08:28:20.580Z,8.07
2023-02-04T08:30:47.749Z,4.68
2023-02-04T08:33:14.613Z,4.50
2023-02-04T08:35:41.809Z,5.38
2023-02-04T08:38:08.642Z,7.88
2023-02-04T08:40:35.600Z,5.65
2023-02-04T08:43:02.576Z,8.07
2023-02-04T08:45:29.801Z,7.60
2023-02-04T08:47:57.086Z,6.20
2023-02-04T08:50:24.048Z,6.72
2023-02-04T08:52:51.438Z,6.10
2023-02-04T08:55:19.354Z,6.45
2023-02-04T08:57:46.322Z,5.65
2023-02-04T09:00:14.090Z,10.23
2023-02-04T09:02:41.294Z,7.10
2023-02-04T09:05:08.428Z,10.25
2023-02-04T09:07:36.463Z,7.78
2023-02-04T09:10:03.689Z,8.52
2023-02-04T09:12:30.796Z,6.38
2023-02-04T09:14:57.936Z,10.73
2023-02-04T09:17:25.657Z,17.73
2023-02-04T09:19:52.658Z,13.65
2023-02-04T09:22:19.652Z,7.55
2023-02-04T09:24:46.736Z,6.18
2023-02-04T09:27:13.668Z,9.50
2023-02-04T09:29:40.757Z,8.25
2023-02-04T09:32:07.833Z,5.72
2023-02-04T09:34:35.813Z,6.63
2023-02-04T09:37:02.709Z,6.75
2023-02-04T09:39:30.080Z,6.28
2023-02-04T09:41:58.510Z,8.13
2023-02-04T09:44:28.882Z,7.60
2023-02-04T09:47:00.992Z,7.82
2023-02-04T09:49:28.852Z,8.48
2023-02-04T09:51:56.742Z,6.63
2023-02-04T09:54:25.494Z,6.63
2023-02-04T09:56:53.192Z,6.85
2023-02-04T09:59:23.593Z,5.60
2023-02-04T10:01:57.460Z,7.78
2023-02-04T10:04:24.500Z,7.55
2023-02-04T10:06:51.658Z,3.28
2023-02-04T10:09:19.183Z,9.50
2023-02-04T10:11:48.466Z,7.70
2023-02-04T10:16:57.283Z,6.07
2023-02-04T10:19:28.792Z,6.35
2023-02-04T10:21:56.363Z,7.68
2023-02-04T10:24:30.795Z,5.30
2023-02-04T10:27:09.525Z,7.07
2023-02-04T10:29:36.929Z,3.83
2023-02-04T10:32:04.174Z,4.82
2023-02-04T10:34:37.957Z,2.80
2023-02-04T10:37:19.150Z,3.85
2023-02-04T10:39:46.189Z,5.45
2023-02-04T10:42:47.729Z,4.90
2023-02-04T10:45:28.907Z,3.00
2023-02-04T10:47:57.317Z,5.57
2023-02-04T10:50:26.734Z,6.10
2023-02-04T10:55:24.341Z,6.40
2023-02-04T10:57:54.524Z,7.97
2023-02-04T11:00:25.542Z,6.90
2023-02-04T11:02:59.604Z,7.57
2023-02-04T11:05:32.555Z,4.15
2023-02-04T11:07:59.786Z,5.32
2023-02-04T11:10:34.615Z,8.80
2023-02-04T11:13:05.722Z,6.38
2023-02-04T11:15:45.561Z,7.50
2023-02-04T11:18:21.654Z,6.90
2023-02-04T11:20:52.038Z,5.63
2023-02-04T11:23:32.320Z,4.60
2023-02-04T11:26:08.681Z,10.15
2023-02-04T11:28:59.018Z,6.70
2023-02-04T11:31:29.128Z,5.20
2023-02-04T11:34:14.833Z,4.55
2023-02-04T11:36:57.344Z,4.00
2023-02-04T11:39:42.571Z,5.75
2023-02-04T11:42:42.301Z,3.63
2023-02-04T11:45:36.658Z,2.60
2023-02-04T12:01:37.226Z,3.65
2023-02-04T12:04:21.768Z,2.22
2023-02-04T12:06:59.188Z,3.60
2023-02-04T12:09:29.604Z,3.60
2023-02-04T12:12:02.324Z,3.72
2023-02-04T12:14:39.252Z,3.38
2023-02-04T12:17:20.390Z,6.65
2023-02-04T12:19:47.323Z,4.05
2023-02-04T12:22:15.730Z,3.50
2023-02-04T12:24:44.062Z,6.60
2023-02-04T12:27:11.185Z,4.13
2023-02-04T12:29:38.341Z,4.30
2023-02-04T12:32:05.402Z,4.90
2023-02-04T12:34:32.407Z,3.60
2023-02-04T12:37:00.003Z,4.40
2023-02-04T12:39:29.287Z,5.30
2023-02-04T13:02:59.260Z,2.60
2023-02-04T13:05:27.394Z,2.40
2023-02-04T13:07:54.651Z,2.58
2023-02-04T13:10:22.138Z,2.22
2023-02-04T13:12:49.250Z,1.38
2023-02-04T13:15:16.410Z,1.38
2023-02-04T13:17:43.681Z,3.00
2023-02-04T13:20:11.490Z,4.63
2023-02-04T13:22:38.911Z,4.93
2023-02-04T13:25:07.022Z,3.38
2023-02-04T13:27:33.958Z,2.22
2023-02-04T13:30:01.585Z,2.83
2023-02-04T13:32:30.167Z,4.55
2023-02-04T13:34:57.418Z,1.88
2023-02-04T13:37:24.409Z,6.97
2023-02-04T13:39:51.665Z,5.15
2023-02-04T13:42:19.872Z,4.00
2023-02-04T13:44:46.799Z,3.13
2023-02-04T13:47:13.888Z,5.80
2023-02-04T13:49:40.798Z,5.72
2023-02-04T13:52:08.052Z,4.63
2023-02-04T13:54:36.737Z,4.43
2023-02-04T13:57:05.630Z,4.07
2023-02-04T13:59:32.739Z,5.80
2023-02-04T14:01:59.776Z,4.20
2023-02-04T14:04:27.190Z,4.30
2023-02-04T14:06:55.527Z,7.53
2023-02-04T14:09:23.229Z,8.80
2023-02-04T14:11:50.244Z,9.20
2023-02-04T14:14:17.369Z,7.65
2023-02-04T14:16:44.534Z,4.97
2023-02-04T14:19:11.827Z,6.22
2023-02-04T14:21:38.804Z,5.53
2023-02-04T14:24:06.025Z,9.20
2023-02-04T14:26:33.008Z,6.40
2023-02-04T14:28:59.849Z,6.10
2023-02-04T14:31:27.211Z,3.58
2023-02-04T14:33:55.259Z,5.03
2023-02-04T14:36:22.413Z,4.40
2023-02-04T14:38:49.637Z,4.22
2023-02-04T14:41:20.080Z,5.55
2023-02-04T14:43:47.726Z,4.22
2023-02-04T14:46:14.935Z,4.75
2023-02-04T14:48:42.120Z,5.25
2023-02-04T14:51:08.990Z,2.05
2023-02-04T14:53:35.916Z,4.70
2023-02-04T14:56:03.025Z,4.13
2023-02-04T14:58:30.088Z,4.00
2023-02-04T15:00:56.964Z,3.72
2023-02-04T15:03:24.116Z,6.00
2023-02-04T15:05:50.955Z,5.97
2023-02-04T15:08:18.145Z,5.38
2023-02-04T15:10:45.590Z,8.85
2023-02-04T15:13:12.719Z,7.35
2023-02-04T15:15:39.777Z,3.63
2023-02-04T15:18:06.807Z,8.70
2023-02-04T15:20:34.178Z,10.02
2023-02-04T15:23:01.313Z,6.43
2023-02-04T15:25:28.421Z,6.35
2023-02-04T15:27:55.639Z,7.55
2023-02-04T15:30:22.775Z,6.82
2023-02-04T15:33:08.207Z,3.13
2023-02-04T15:35:54.013Z,5.03
2023-02-04T15:38:39.656Z,6.07
2023-02-04T15:41:06.533Z,5.68
2023-02-04T15:43:33.386Z,4.07
2023-02-04T15:46:00.608Z,4.82
2023-02-04T15:48:28.395Z,4.63
2023-02-04T15:50:56.166Z,5.95
2023-02-04T15:53:23.204Z,6.65
2023-02-04T15:55:50.195Z,10.90
2023-02-04T15:58:17.239Z,5.10
2023-02-04T16:00:44.348Z,5.70
2023-02-04T16:03:11.336Z,6.80
2023-02-04T16:05:38.403Z,6.60
2023-02-04T16:08:05.317Z,5.30
2023-02-04T16:10:32.712Z,4.53
2023-02-04T16:13:00.224Z,5.60
2023-02-04T16:15:27.564Z,4.88
2023-02-04T16:17:56.166Z,4.63
2023-02-04T16:20:23.696Z,5.35
2023-02-04T16:22:50.699Z,7.68
2023-02-04T16:25:17.772Z,7.18
2023-02-04T16:27:44.747Z,6.03
2023-02-04T16:30:12.463Z,11.43
2023-02-04T16:32:39.568Z,7.25
2023-02-04T16:35:07.018Z,6.15
2023-02-04T16:37:34.676Z,7.53
2023-02-04T16:40:01.565Z,9.50
2023-02-04T16:42:31.233Z,10.93
2023-02-04T16:44:58.829Z,11.70
2023-02-04T16:47:25.939Z,10.95
2023-02-04T16:49:53.728Z,9.63
2023-02-04T16:52:21.284Z,7.18
2023-02-04T16:54:48.203Z,11.40
2023-02-04T16:57:15.274Z,8.45
2023-02-04T16:59:42.185Z,10.85
2023-02-04T17:02:10.994Z,8.35
2023-02-04T17:04:37.993Z,12.77
2023-02-04T17:07:05.633Z,7.95
2023-02-04T17:09:32.608Z,8.15
2023-02-04T17:11:59.711Z,9.35
2023-02-04T17:14:26.604Z,5.85
2023-02-04T17:16:53.720Z,10.73
2023-02-04T17:19:21.164Z,7.22
2023-02-04T17:21:48.794Z,9.20
2023-02-04T17:24:15.743Z,8.30
2023-02-04T17:26:42.805Z,9.15
2023-02-04T17:29:12.732Z,7.90
2023-02-04T17:31:42.853Z,7.85
2023-02-04T17:34:10.505Z,6.57
2023-02-04T17:36:37.775Z,8.50
2023-02-04T17:39:05.630Z,8.75
2023-02-04T17:41:32.581Z,9.00
2023-02-04T17:44:00.549Z,8.35
2023-02-04T17:46:27.593Z,8.48
2023-02-04T17:48:54.810Z,9.10
2023-02-04T17:51:21.806Z,8.60
2023-02-04T17:53:48.838Z,8.27
2023-02-04T17:56:15.805Z,7.05
2023-02-04T17:58:43.027Z,8.48
2023-02-04T18:01:14.858Z,11.23
2023-02-04T18:03:46.469Z,8.35
2023-02-04T18:06:18.620Z,4.85
2023-02-04T18:08:45.860Z,5.60
2023-02-04T18:11:23.817Z,5.75
2023-02-04T18:13:52.760Z,3.97
2023-02-04T18:16:26.918Z,7.22
2023-02-04T18:19:17.328Z,10.07
2023-02-04T18:21:45.325Z,7.45
2023-02-04T18:24:18.619Z,9.40
2023-02-04T18:26:51.584Z,6.88
2023-02-04T18:29:31.381Z,5.10
2023-02-04T18:32:04.770Z,6.93
2023-02-04T18:34:40.980Z,7.82
2023-02-04T18:37:31.077Z,7.28
2023-02-04T18:40:10.748Z,7.68
2023-02-04T18:42:38.924Z,6.18
2023-02-04T18:45:27.866Z,5.65
2023-02-04T18:47:57.098Z,7.07
2023-02-04T18:52:51.032Z,7.20
2023-02-04T18:55:48.731Z,8.25
2023-02-04T18:58:40.727Z,9.35
2023-02-04T19:01:10.919Z,8.88
2023-02-04T19:03:48.964Z,9.60
2023-02-04T19:06:24.655Z,9.02
2023-02-04T19:08:52.712Z,11.50
2023-02-04T19:11:29.853Z,10.52
2023-02-04T19:13:59.150Z,11.75
2023-02-04T19:16:33.136Z,10.25
2023-02-04T19:19:00.225Z,12.18
2023-02-04T19:21:30.972Z,11.50
2023-02-04T19:24:29.755Z,12.63
2023-02-04T19:26:58.848Z,11.68
2023-02-04T19:29:28.770Z,10.50
2023-02-04T19:32:08.156Z,7.85
2023-02-04T19:34:38.700Z,4.03
2023-02-04T19:37:23.469Z,6.13
2023-02-04T19:39:51.647Z,6.95
2023-02-04T19:42:38.024Z,6.70
2023-02-04T19:45:19.532Z,7.68
2023-02-04T19:47:46.420Z,10.30
2023-02-04T19:50:13.508Z,6.50
2023-02-04T19:52:47.912Z,5.97
2023-02-04T19:55:57.603Z,4.63
2023-02-04T19:58:26.415Z,2.78
2023-02-04T20:01:01.868Z,7.10
2023-02-04T20:03:41.385Z,4.63
2023-02-04T20:06:27.361Z,5.90
2023-02-04T20:08:55.711Z,6.00
2023-02-04T20:11:33.048Z,4.72
2023-02-04T20:14:13.860Z,7.30
2023-02-04T20:16:47.686Z,5.97
2023-02-04T20:19:25.019Z,4.43
2023-02-04T20:21:58.722Z,6.18
2023-02-04T20:24:34.054Z,4.85
2023-02-04T20:27:11.097Z,4.55
2023-02-04T20:29:38.153Z,4.15
2023-02-04T20:32:20.023Z,8.23
2023-02-04T20:34:47.321Z,5.78
2023-02-04T20:37:23.296Z,3.17
2023-02-04T20:39:50.415Z,4.60
2023-02-04T20:42:29.877Z,7.15
2023-02-04T20:45:28.274Z,5.20
2023-02-04T20:48:25.519Z,1.35
2023-02-04T20:50:58.604Z,6.60
2023-02-04T20:53:27.908Z,4.32
2023-02-04T20:58:37.845Z,6.10
2023-02-04T21:01:22.717Z,6.82
2023-02-04T21:03:51.314Z,2.80
2023-02-04T21:06:18.219Z,3.80
2023-02-04T21:08:48.226Z,4.75
2023-02-04T21:11:15.305Z,9.18
2023-02-04T21:13:42.795Z,6.28
2023-02-04T21:16:09.985Z,7.22
2023-02-04T21:18:37.439Z,5.85
2023-02-04T21:21:07.767Z,7.60
2023-02-04T21:23:35.895Z,5.25
2023-02-04T21:26:03.229Z,6.97
2023-02-04T21:28:31.818Z,5.25
2023-02-04T21:30:59.905Z,5.03
2023-02-04T21:33:27.103Z,3.97
2023-02-04T21:35:54.411Z,4.18
2023-02-04T21:38:21.650Z,9.30
2023-02-04T21:40:49.211Z,4.22
2023-02-04T21:43:16.152Z,7.05
2023-02-04T21:45:43.390Z,6.00
2023-02-04T21:48:10.455Z,3.97
2023-02-04T21:50:40.888Z,5.22
2023-02-04T21:53:09.472Z,4.32
2023-02-04T21:55:37.310Z,4.60
2023-02-04T21:58:05.830Z,4.97
2023-02-04T22:00:33.676Z,3.80
2023-02-04T22:03:01.152Z,5.50
2023-02-04T22:05:28.588Z,10.80
2023-02-04T22:07:55.714Z,5.22
2023-02-04T22:10:25.677Z,4.40
2023-02-04T22:12:53.129Z,7.07
2023-02-04T22:15:24.479Z,4.80
2023-02-04T22:17:54.638Z,5.88
2023-02-04T22:20:25.624Z,5.82
2023-02-04T22:23:00.121Z,4.83
2023-02-04T22:25:27.391Z,4.82
2023-02-04T22:27:54.453Z,3.95
2023-02-04T22:30:21.830Z,4.55
2023-02-04T22:32:48.945Z,6.80
2023-02-04T22:35:16.009Z,4.93
2023-02-04T22:37:43.333Z,4.93
2023-02-04T22:40:11.995Z,6.72
2023-02-04T22:42:40.239Z,5.05
2023-02-04T22:45:08.185Z,5.97
2023-02-04T22:47:35.160Z,4.63
2023-02-04T22:50:02.201Z,4.60
2023-02-04T22:52:30.212Z,5.05
2023-02-04T22:54:57.433Z,4.45
2023-02-04T22:57:24.488Z,6.00
2023-02-04T22:59:51.396Z,4.63
2023-02-04T23:02:18.470Z,4.20
2023-02-04T23:04:45.635Z,6.30
2023-02-04T23:07:13.581Z,4.85
2023-02-04T23:09:40.500Z,5.38
2023-02-04T23:12:14.162Z,5.85
2023-02-04T23:14:46.162Z,6.82
2023-02-04T23:17:16.843Z,3.72
2023-02-04T23:19:44.722Z,4.47
2023-02-04T23:22:13.066Z,6.78
2023-02-04T23:24:42.592Z,5.22
2023-02-04T23:27:11.781Z,4.77
2023-02-04T23:32:07.601Z,4.63
2023-02-04T23:34:35.322Z,5.30
2023-02-04T23:37:02.674Z,5.55
2023-02-04T23:39:30.707Z,7.25
2023-02-04T23:41:57.893Z,6.82
2023-02-04T23:44:25.016Z,6.57
2023-02-04T23:46:52.069Z,6.57
2023-02-04T23:49:19.138Z,8.88
2023-02-04T23:51:46.472Z,7.53
2023-02-04T23:54:13.493Z,5.47
2023-02-04T23:56:40.679Z,7.47
2023-02-04T23:59:08.427Z,8.45
